Time;durP1;ratioP1;P1;durP2;ratioP2;P2;SDS_P1;SDS_P2;PMS_P1;PMS_P2;Temp;Humidity;BMP_temperature;BMP_pressure;BME280_temperature;BME280_humidity;BME280_pressure;Samples;Min_cycle;Max_cycle;Signal;HPM_P1;HPM_P2
2023/08/28 00:02:15;;;;;;;4.97;1.65;;;13.70;99.90;;;;;;5033464;28;20073;-57
2023/08/28 00:04:42;;;;;;;4.22;1.40;;;13.70;99.90;;;;;;5033620;28;20124;-55
2023/08/28 00:07:09;;;;;;;5.68;1.40;;;13.70;99.90;;;;;;5033046;28;20049;-49
2023/08/28 00:09:35;;;;;;;3.97;1.40;;;13.70;99.90;;;;;;5033411;28;20524;-54
2023/08/28 00:12:02;;;;;;;3.58;1.50;;;13.60;99.90;;;;;;5033431;28;20049;-54
2023/08/28 00:14:29;;;;;;;4.35;1.58;;;13.60;99.90;;;;;;5033681;28;20129;-56
2023/08/28 00:16:56;;;;;;;3.95;1.50;;;13.60;99.90;;;;;;5033382;28;20039;-54
2023/08/28 00:19:23;;;;;;;9.35;1.50;;;13.50;99.90;;;;;;5033554;28;20091;-54
2023/08/28 00:21:50;;;;;;;4.90;1.40;;;13.50;99.90;;;;;;5033400;28;20053;-52
2023/08/28 00:24:17;;;;;;;5.85;1.70;;;13.50;99.90;;;;;;5033524;28;20507;-49
2023/08/28 00:26:43;;;;;;;3.85;1.40;;;13.50;99.90;;;;;;5033307;28;20143;-52
2023/08/28 00:29:10;;;;;;;5.15;1.95;;;13.40;99.90;;;;;;5033133;28;20037;-53
2023/08/28 00:31:37;;;;;;;6.45;1.92;;;13.40;99.90;;;;;;5031988;28;20038;-60
2023/08/28 00:34:05;;;;;;;6.15;1.50;;;13.40;99.90;;;;;;5031832;28;20053;-57
2023/08/28 00:36:32;;;;;;;3.22;1.70;;;13.30;99.90;;;;;;5033170;28;20057;-49
2023/08/28 00:38:59;;;;;;;3.50;1.48;;;13.30;99.90;;;;;;5031770;28;20038;-53
2023/08/28 00:41:26;;;;;;;4.70;1.70;;;13.30;99.90;;;;;;5034205;28;20053;-56
2023/08/28 00:43:54;;;;;;;4.38;1.77;;;13.30;99.90;;;;;;5035986;28;20075;-52
2023/08/28 00:46:20;;;;;;;6.00;1.63;;;13.30;99.90;;;;;;5035866;28;20087;-49
2023/08/28 00:48:47;;;;;;;3.40;1.40;;;13.30;99.90;;;;;;5035714;28;20115;-56
2023/08/28 00:51:14;;;;;;;4.45;1.60;;;13.30;99.90;;;;;;5036823;28;20103;-51
2023/08/28 00:53:41;;;;;;;3.22;1.73;;;13.20;99.90;;;;;;5035419;28;20037;-47
2023/08/28 00:56:08;;;;;;;3.47;1.65;;;13.20;99.90;;;;;;5019031;28;20049;-50
2023/08/28 00:58:35;;;;;;;3.55;1.45;;;13.20;99.90;;;;;;5036886;28;20075;-53
2023/08/28 01:01:02;;;;;;;6.32;2.92;;;13.20;99.90;;;;;;5036965;28;20053;-58
2023/08/28 01:03:29;;;;;;;3.13;1.60;;;13.20;99.90;;;;;;5035933;28;20142;-58
2023/08/28 01:05:57;;;;;;;5.00;1.75;;;13.20;99.90;;;;;;5036894;28;20061;-52
2023/08/28 01:08:24;;;;;;;3.13;1.35;;;13.20;99.90;;;;;;5035384;28;20077;-46
2023/08/28 01:10:51;;;;;;;4.47;1.60;;;13.10;99.90;;;;;;5036616;28;20060;-52
2023/08/28 01:13:18;;;;;;;6.38;1.80;;;13.10;99.90;;;;;;5035464;28;20130;-51
2023/08/28 01:15:47;;;;;;;3.38;1.60;;;13.10;99.90;;;;;;5036645;28;20073;-55
2023/08/28 01:18:13;;;;;;;2.92;1.48;;;13.10;99.90;;;;;;5036005;28;20134;-48
2023/08/28 01:20:40;;;;;;;3.30;1.73;;;13.00;99.90;;;;;;5036263;28;20045;-55
2023/08/28 01:23:07;;;;;;;4.60;1.85;;;13.00;99.90;;;;;;5034894;28;20045;-52
2023/08/28 01:25:34;;;;;;;4.93;1.90;;;13.00;99.90;;;;;;5035082;28;20045;-52
2023/08/28 01:28:00;;;;;;;4.10;1.73;;;13.00;99.90;;;;;;5036353;28;20493;-55
2023/08/28 01:30:27;;;;;;;6.78;1.98;;;12.90;99.90;;;;;;5036398;28;20068;-58
2023/08/28 01:32:54;;;;;;;4.47;1.67;;;12.90;99.90;;;;;;5036541;28;20034;-52
2023/08/28 01:35:24;;;;;;;3.92;1.63;;;12.90;99.90;;;;;;5036134;28;20084;-50
2023/08/28 01:37:51;;;;;;;2.88;1.55;;;12.90;99.90;;;;;;5034563;28;20455;-52
2023/08/28 01:40:18;;;;;;;3.55;1.50;;;12.80;99.90;;;;;;5036249;28;20049;-52
2023/08/28 01:42:46;;;;;;;3.22;1.55;;;12.80;99.90;;;;;;5035945;28;20116;-52
2023/08/28 01:45:13;;;;;;;4.28;1.88;;;12.90;99.90;;;;;;5034386;28;20045;-54
2023/08/28 01:47:40;;;;;;;3.75;1.70;;;12.90;99.90;;;;;;5035667;28;20450;-52
2023/08/28 01:50:07;;;;;;;3.78;1.60;;;12.80;99.90;;;;;;5036025;28;20048;-56
2023/08/28 01:52:34;;;;;;;3.03;1.58;;;12.80;99.90;;;;;;5034505;28;20056;-54
2023/08/28 01:55:01;;;;;;;2.10;1.30;;;12.80;99.90;;;;;;5036337;28;20141;-56
2023/08/28 01:57:28;;;;;;;4.32;1.80;;;12.80;99.90;;;;;;5034509;28;20049;-55
2023/08/28 01:59:55;;;;;;;3.55;1.75;;;12.90;99.90;;;;;;5034298;28;20069;-52
2023/08/28 02:02:21;;;;;;;5.60;1.70;;;12.80;99.90;;;;;;5034576;28;20082;-48
2023/08/28 02:04:48;;;;;;;3.50;1.42;;;12.80;99.90;;;;;;5035587;28;20493;-51
2023/08/28 02:07:16;;;;;;;3.72;1.75;;;12.80;99.90;;;;;;5034062;28;20076;-54
2023/08/28 02:09:42;;;;;;;6.53;2.22;;;12.90;99.90;;;;;;5035434;28;20052;-49
2023/08/28 02:12:10;;;;;;;4.47;1.92;;;12.90;99.90;;;;;;5034090;28;20045;-55
2023/08/28 02:14:37;;;;;;;2.90;1.40;;;12.90;99.90;;;;;;5035283;28;20072;-51
2023/08/28 02:17:04;;;;;;;5.28;1.92;;;12.80;99.90;;;;;;5033945;28;20107;-55
2023/08/28 02:19:31;;;;;;;6.22;2.28;;;12.80;99.90;;;;;;5034018;28;20228;-59
2023/08/28 02:21:57;;;;;;;3.38;1.70;;;12.70;99.90;;;;;;5033696;28;20049;-50
2023/08/28 02:24:24;;;;;;;2.45;1.35;;;12.70;99.90;;;;;;5034815;28;20041;-50
2023/08/28 02:26:51;;;;;;;4.55;1.80;;;12.70;99.90;;;;;;5033792;28;20103;-56
2023/08/28 02:29:18;;;;;;;3.30;1.77;;;12.70;99.90;;;;;;5035024;28;20041;-50
2023/08/28 02:31:45;;;;;;;4.55;1.70;;;12.60;99.90;;;;;;5033838;28;20061;-51
2023/08/28 02:34:12;;;;;;;3.78;1.60;;;12.60;99.90;;;;;;5035044;28;20537;-50
2023/08/28 02:36:40;;;;;;;5.43;1.95;;;12.60;99.90;;;;;;5033592;28;20041;-58
2023/08/28 02:39:07;;;;;;;4.88;1.90;;;12.60;99.90;;;;;;5034927;28;20057;-54
2023/08/28 02:41:33;;;;;;;3.97;1.73;;;12.60;99.90;;;;;;5034892;28;20051;-54
2023/08/28 02:44:01;;;;;;;4.82;2.00;;;12.60;99.90;;;;;;5034035;28;20527;-53
2023/08/28 02:46:27;;;;;;;3.47;1.70;;;12.50;99.90;;;;;;5033232;28;20378;-57
2023/08/28 02:48:54;;;;;;;2.95;1.70;;;12.50;99.90;;;;;;5033478;28;20489;-57
2023/08/28 02:51:21;;;;;;;4.45;1.67;;;12.50;99.90;;;;;;5032702;28;20411;-54
2023/08/28 02:53:48;;;;;;;3.67;1.60;;;12.50;99.90;;;;;;5034724;28;20124;-52
2023/08/28 02:56:15;;;;;;;5.47;1.65;;;12.50;99.90;;;;;;5034933;28;20046;-57
2023/08/28 02:58:41;;;;;;;4.47;1.98;;;12.40;99.90;;;;;;5033246;28;20145;-50
2023/08/28 03:01:09;;;;;;;3.45;1.60;;;12.40;99.90;;;;;;5033116;28;20054;-52
2023/08/28 03:03:35;;;;;;;3.78;1.60;;;12.30;99.90;;;;;;5033992;28;20469;-57
2023/08/28 03:06:02;;;;;;;3.05;1.90;;;12.40;99.90;;;;;;5034445;28;20069;-50
2023/08/28 03:08:29;;;;;;;4.90;1.85;;;12.30;99.90;;;;;;5034418;28;20041;-56
2023/08/28 03:10:56;;;;;;;2.65;1.70;;;12.30;99.90;;;;;;5033156;28;20136;-58
2023/08/28 03:13:23;;;;;;;5.50;1.95;;;12.30;99.90;;;;;;5034314;28;20037;-53
2023/08/28 03:15:50;;;;;;;4.57;1.70;;;12.30;99.90;;;;;;5033134;28;20493;-51
2023/08/28 03:18:16;;;;;;;4.15;1.65;;;12.30;99.90;;;;;;5032829;28;20140;-56
2023/08/28 03:20:43;;;;;;;3.90;1.83;;;12.20;99.90;;;;;;5032479;28;20123;-54
2023/08/28 03:23:10;;;;;;;3.78;1.92;;;12.20;99.90;;;;;;5032648;28;20115;-53
2023/08/28 03:25:37;;;;;;;3.67;1.95;;;12.20;99.90;;;;;;5034036;28;20049;-49
2023/08/28 03:28:07;;;;;;;3.15;1.90;;;12.20;99.90;;;;;;5034102;28;20220;-55
2023/08/28 03:30:34;;;;;;;3.35;1.80;;;12.20;99.90;;;;;;5034239;28;20034;-57
2023/08/28 03:33:01;;;;;;;3.38;1.98;;;12.10;99.90;;;;;;5034206;28;20370;-58
2023/08/28 03:35:29;;;;;;;3.58;1.85;;;12.10;99.90;;;;;;5032555;28;20046;-55
2023/08/28 03:37:56;;;;;;;5.88;2.22;;;12.10;99.90;;;;;;5033966;28;20041;-57
2023/08/28 03:40:23;;;;;;;4.80;1.95;;;12.10;99.90;;;;;;5032335;28;20041;-56
2023/08/28 03:42:50;;;;;;;3.17;1.85;;;12.00;99.90;;;;;;5032229;28;20115;-54
2023/08/28 03:45:17;;;;;;;4.20;2.20;;;12.00;99.90;;;;;;5033604;28;20480;-51
2023/08/28 03:47:44;;;;;;;4.10;1.90;;;12.00;99.90;;;;;;5033296;28;20042;-53
2023/08/28 03:50:11;;;;;;;3.75;2.00;;;12.10;99.90;;;;;;5031920;28;20045;-57
2023/08/28 03:52:38;;;;;;;3.58;1.73;;;12.00;99.90;;;;;;5032019;28;20503;-56
2023/08/28 03:55:04;;;;;;;3.28;1.80;;;12.00;99.90;;;;;;5033131;28;20477;-58
2023/08/28 03:57:34;;;;;;;4.03;1.80;;;12.00;99.90;;;;;;5033164;28;20502;-59
2023/08/28 04:00:00;;;;;;;4.07;2.10;;;12.00;99.90;;;;;;5032380;28;20049;-55
2023/08/28 04:02:39;;;;;;;7.50;1.83;;;11.90;99.90;;;;;;5032941;28;20088;-57
2023/08/28 04:05:06;;;;;;;6.03;1.90;;;11.90;99.90;;;;;;5032172;28;20063;-56
2023/08/28 04:07:33;;;;;;;4.57;2.25;;;11.90;99.90;;;;;;5031559;28;20503;-57
2023/08/28 04:10:00;;;;;;;5.57;1.95;;;11.90;99.90;;;;;;5032320;28;20096;-56
2023/08/28 04:12:27;;;;;;;4.57;2.03;;;11.80;99.90;;;;;;5031877;28;20503;-57
2023/08/28 04:14:54;;;;;;;4.38;2.00;;;11.80;99.90;;;;;;5031074;28;20068;-58
2023/08/28 04:17:21;;;;;;;5.70;2.28;;;11.80;99.90;;;;;;5032203;28;20524;-57
2023/08/28 04:19:47;;;;;;;3.95;2.15;;;11.80;99.90;;;;;;5031554;28;20057;-55
2023/08/28 04:22:16;;;;;;;4.53;2.10;;;11.80;99.90;;;;;;5033021;28;20477;-57
2023/08/28 04:24:42;;;;;;;4.07;1.88;;;11.70;99.90;;;;;;5032062;28;20156;-56
2023/08/28 04:27:10;;;;;;;3.97;2.15;;;11.70;99.90;;;;;;5022160;28;20034;-56
2023/08/28 04:29:37;;;;;;;4.82;2.60;;;11.70;99.90;;;;;;5013712;28;20038;-57
2023/08/28 04:32:03;;;;;;;3.42;2.17;;;11.70;99.90;;;;;;5013880;28;20404;-56
2023/08/28 04:34:30;;;;;;;6.82;2.40;;;11.60;99.90;;;;;;5011988;28;20065;-59
2023/08/28 04:36:57;;;;;;;4.03;2.42;;;11.60;99.90;;;;;;5028286;28;20064;-56
2023/08/28 04:39:24;;;;;;;5.85;2.40;;;11.60;99.90;;;;;;5011933;28;20054;-58
2023/08/28 04:41:52;;;;;;;5.95;2.30;;;11.60;99.90;;;;;;5011809;28;20083;-56
2023/08/28 04:44:19;;;;;;;4.55;2.00;;;11.60;99.90;;;;;;5011231;28;20053;-55
2023/08/28 04:46:46;;;;;;;4.82;2.30;;;11.70;99.90;;;;;;5012827;28;20045;-57
2023/08/28 04:49:13;;;;;;;4.68;2.40;;;11.60;99.90;;;;;;5011464;28;20050;-56
2023/08/28 04:51:39;;;;;;;5.22;2.20;;;11.60;99.90;;;;;;5011085;28;20078;-53
2023/08/28 04:54:08;;;;;;;3.92;1.90;;;11.60;99.90;;;;;;5011530;28;20050;-56
2023/08/28 04:56:36;;;;;;;4.10;2.45;;;11.60;99.90;;;;;;4995524;28;20461;-56
2023/08/28 04:59:03;;;;;;;3.97;2.45;;;11.60;99.90;;;;;;5027952;28;20161;-53
2023/08/28 05:01:30;;;;;;;4.15;2.00;;;11.60;99.90;;;;;;5011623;28;20096;-52
2023/08/28 05:03:57;;;;;;;3.90;2.00;;;11.60;99.90;;;;;;5012655;28;20493;-55
2023/08/28 05:06:24;;;;;;;3.25;2.03;;;11.50;99.90;;;;;;5027719;28;20046;-55
2023/08/28 05:08:51;;;;;;;3.63;2.10;;;11.50;99.90;;;;;;5012779;28;20555;-57
2023/08/28 05:11:19;;;;;;;5.82;2.20;;;11.50;99.90;;;;;;5012885;28;20085;-54
2023/08/28 05:13:47;;;;;;;4.78;2.92;;;11.50;99.90;;;;;;5011349;28;20042;-52
2023/08/28 05:16:13;;;;;;;3.22;2.30;;;11.50;99.90;;;;;;5012649;28;20374;-51
2023/08/28 05:18:40;;;;;;;6.13;2.65;;;11.50;99.90;;;;;;5012773;28;20079;-52
2023/08/28 05:21:09;;;;;;;6.60;2.22;;;11.50;99.90;;;;;;5011612;28;20076;-54
2023/08/28 05:23:36;;;;;;;5.43;2.15;;;11.50;99.90;;;;;;5011289;28;20104;-52
2023/08/28 05:26:03;;;;;;;4.30;2.50;;;11.50;99.90;;;;;;5012778;28;20044;-58
2023/08/28 05:28:31;;;;;;;5.10;2.38;;;11.50;99.90;;;;;;5016103;28;20453;-50
2023/08/28 05:30:58;;;;;;;5.30;2.33;;;11.60;99.90;;;;;;5014985;28;20046;-57
2023/08/28 05:33:25;;;;;;;5.57;2.25;;;11.50;99.90;;;;;;5014705;28;20081;-53
2023/08/28 05:35:52;;;;;;;3.72;2.05;;;11.50;99.90;;;;;;5016067;28;20068;-52
2023/08/28 05:38:19;;;;;;;4.55;2.10;;;11.60;99.90;;;;;;5014664;28;20073;-56
2023/08/28 05:40:47;;;;;;;4.20;1.95;;;11.60;99.90;;;;;;5014889;28;20057;-52
2023/08/28 05:43:14;;;;;;;5.60;2.33;;;11.60;99.90;;;;;;5014750;28;20038;-54
2023/08/28 05:45:40;;;;;;;4.35;2.45;;;11.60;99.90;;;;;;5016066;28;20093;-51
2023/08/28 05:48:07;;;;;;;5.75;2.03;;;11.70;99.90;;;;;;5031351;28;20490;-54
2023/08/28 05:50:36;;;;;;;3.97;2.03;;;11.70;99.90;;;;;;5015761;28;20058;-54
2023/08/28 05:53:04;;;;;;;5.57;2.40;;;11.70;99.90;;;;;;5015946;28;20065;-48
2023/08/28 05:55:31;;;;;;;3.13;2.15;;;11.70;99.90;;;;;;5014779;28;20049;-55
2023/08/28 05:57:59;;;;;;;6.07;2.53;;;11.80;99.90;;;;;;5014734;28;20067;-54
2023/08/28 06:00:26;;;;;;;5.45;2.38;;;11.80;99.90;;;;;;5014672;28;20444;-54
2023/08/28 06:02:52;;;;;;;3.88;2.20;;;11.80;99.90;;;;;;5015749;28;20100;-57
2023/08/28 06:05:21;;;;;;;3.88;2.42;;;11.80;99.90;;;;;;5015714;28;20036;-54
2023/08/28 06:07:47;;;;;;;5.65;2.70;;;11.90;99.90;;;;;;5015652;28;20124;-54
2023/08/28 06:10:19;;;;;;;3.92;2.42;;;11.90;99.90;;;;;;5014085;28;20042;-57
2023/08/28 06:12:46;;;;;;;4.30;2.30;;;11.90;99.90;;;;;;5014641;28;20537;-52
2023/08/28 06:15:19;;;;;;;5.25;2.53;;;12.00;99.90;;;;;;5014158;28;20050;-59
2023/08/28 06:17:46;;;;;;;4.18;2.55;;;12.00;99.90;;;;;;5032232;28;20045;-53
2023/08/28 06:20:13;;;;;;;3.65;2.35;;;12.00;99.90;;;;;;5035252;28;20069;-55
2023/08/28 06:22:39;;;;;;;4.20;2.22;;;12.10;99.90;;;;;;5033909;28;20424;-56
2023/08/28 06:25:08;;;;;;;3.78;2.60;;;12.10;99.90;;;;;;5034150;28;20041;-56
2023/08/28 06:27:34;;;;;;;3.53;2.38;;;12.10;99.90;;;;;;5035054;28;20038;-58
2023/08/28 06:30:01;;;;;;;5.85;2.97;;;12.20;99.90;;;;;;5034194;28;20045;-55
2023/08/28 06:32:28;;;;;;;3.63;2.40;;;12.20;99.90;;;;;;5033943;28;20038;-57
2023/08/28 06:34:55;;;;;;;4.18;2.47;;;12.30;99.90;;;;;;5035321;28;20099;-52
2023/08/28 06:37:22;;;;;;;5.50;2.58;;;12.30;99.90;;;;;;5035016;28;20041;-53
2023/08/28 06:39:48;;;;;;;4.30;2.75;;;12.40;99.90;;;;;;5034288;28;20045;-54
2023/08/28 06:42:15;;;;;;;5.70;2.50;;;12.50;99.90;;;;;;5033863;28;20045;-51
2023/08/28 06:44:42;;;;;;;3.58;2.20;;;12.50;99.90;;;;;;5034987;28;20072;-58
2023/08/28 06:47:09;;;;;;;5.97;2.80;;;12.60;99.90;;;;;;5033584;28;20045;-55
2023/08/28 06:49:35;;;;;;;3.78;2.20;;;12.70;99.90;;;;;;5035093;28;20453;-55
2023/08/28 06:52:03;;;;;;;4.72;2.53;;;12.70;99.90;;;;;;5034860;28;20045;-57
2023/08/28 06:54:32;;;;;;;5.05;2.75;;;12.80;99.90;;;;;;5035574;28;20063;-53
2023/08/28 06:57:16;;;;;;;4.68;2.83;;;12.90;99.90;;;;;;5035293;28;20435;-57
2023/08/28 06:59:43;;;;;;;4.22;2.95;;;13.00;99.90;;;;;;5034779;28;20052;-56
2023/08/28 07:02:10;;;;;;;4.93;3.20;;;13.10;99.90;;;;;;5034599;28;20045;-55
2023/08/28 07:04:37;;;;;;;5.85;3.17;;;13.30;99.90;;;;;;5034787;28;20048;-53
2023/08/28 07:07:04;;;;;;;4.20;3.22;;;13.40;99.90;;;;;;5034680;28;20038;-54
2023/08/28 07:09:30;;;;;;;6.13;3.65;;;13.50;99.90;;;;;;5034501;28;20480;-51
2023/08/28 07:11:57;;;;;;;4.35;3.20;;;13.50;99.90;;;;;;5034265;28;20042;-56
2023/08/28 07:14:25;;;;;;;6.05;3.42;;;13.60;99.90;;;;;;5034375;28;20041;-55
2023/08/28 07:16:51;;;;;;;6.63;3.67;;;13.70;99.90;;;;;;5034192;28;20050;-54
2023/08/28 07:19:18;;;;;;;4.15;3.25;;;13.80;99.90;;;;;;5034539;28;20049;-54
2023/08/28 07:21:45;;;;;;;7.55;3.70;;;13.80;99.90;;;;;;5033950;28;20045;-56
2023/08/28 07:24:12;;;;;;;4.75;3.60;;;13.90;99.90;;;;;;5033918;28;20041;-56
2023/08/28 07:26:38;;;;;;;4.75;3.25;;;14.00;99.90;;;;;;5033592;28;20065;-59
2023/08/28 07:29:05;;;;;;;5.38;3.45;;;14.00;99.90;;;;;;5033937;28;20042;-53
2023/08/28 07:31:32;;;;;;;4.75;3.05;;;14.10;99.90;;;;;;5033883;28;20041;-54
2023/08/28 07:33:59;;;;;;;5.40;3.30;;;14.20;99.90;;;;;;5034043;28;20503;-57
2023/08/28 07:36:26;;;;;;;4.97;3.40;;;14.20;99.90;;;;;;5033821;28;20034;-58
2023/08/28 07:38:53;;;;;;;4.80;2.90;;;14.20;99.90;;;;;;5034001;28;20472;-52
2023/08/28 07:41:20;;;;;;;4.65;2.97;;;14.20;99.90;;;;;;5033576;28;20091;-50
2023/08/28 07:43:47;;;;;;;4.43;3.17;;;14.20;99.90;;;;;;5033795;28;20037;-49
2023/08/28 07:46:14;;;;;;;5.55;3.30;;;14.20;99.90;;;;;;5033649;28;20038;-54
2023/08/28 07:48:41;;;;;;;7.25;3.47;;;14.30;99.90;;;;;;5034046;28;20519;-55
2023/08/28 07:51:08;;;;;;;5.60;3.33;;;14.30;99.90;;;;;;5033438;28;20045;-54
2023/08/28 07:53:35;;;;;;;4.55;3.53;;;14.30;99.90;;;;;;5033361;28;20033;-53
2023/08/28 07:56:02;;;;;;;4.07;3.03;;;14.40;99.90;;;;;;5033933;28;20469;-53
2023/08/28 07:58:29;;;;;;;5.00;3.10;;;14.40;99.90;;;;;;5032559;28;20100;-54
2023/08/28 08:00:56;;;;;;;5.10;3.40;;;14.40;99.90;;;;;;5033700;28;20041;-52
2023/08/28 08:03:23;;;;;;;5.88;3.50;;;14.50;99.90;;;;;;5033855;28;20128;-53
2023/08/28 08:05:50;;;;;;;6.85;3.20;;;14.60;99.90;;;;;;5033400;28;20045;-56
2023/08/28 08:08:17;;;;;;;6.10;3.20;;;14.60;99.90;;;;;;5033113;28;20069;-57
2023/08/28 08:10:44;;;;;;;6.47;3.30;;;14.70;99.90;;;;;;5033525;28;20120;-52
2023/08/28 08:13:11;;;;;;;4.72;2.90;;;14.70;99.90;;;;;;5033610;28;20369;-52
2023/08/28 08:15:37;;;;;;;5.15;3.25;;;14.80;99.90;;;;;;5033111;28;20124;-54
2023/08/28 08:18:04;;;;;;;4.18;2.78;;;14.80;99.90;;;;;;5033282;28;20116;-56
2023/08/28 08:20:31;;;;;;;4.70;2.80;;;14.90;99.90;;;;;;5033619;28;20045;-54
2023/08/28 08:22:58;;;;;;;4.50;3.00;;;15.00;99.90;;;;;;5032336;28;20500;-49
2023/08/28 08:25:25;;;;;;;4.47;2.88;;;15.10;99.90;;;;;;5033379;28;20491;-53
2023/08/28 08:27:52;;;;;;;3.20;2.70;;;15.20;99.90;;;;;;5033010;28;20120;-59
2023/08/28 08:30:19;;;;;;;3.60;2.45;;;15.30;99.90;;;;;;5032376;28;20094;-53
2023/08/28 08:32:46;;;;;;;4.97;2.58;;;15.40;99.90;;;;;;5033439;28;20092;-55
2023/08/28 08:35:13;;;;;;;5.28;2.50;;;15.60;99.90;;;;;;5033296;28;20099;-57
2023/08/28 08:37:40;;;;;;;5.18;3.00;;;15.60;99.90;;;;;;5033257;28;20050;-52
2023/08/28 08:40:08;;;;;;;4.05;2.65;;;15.70;99.90;;;;;;5033149;28;20045;-55
2023/08/28 08:42:35;;;;;;;5.05;2.72;;;15.80;99.90;;;;;;5033336;28;20484;-55
2023/08/28 08:45:02;;;;;;;4.10;2.80;;;15.90;99.90;;;;;;5033204;28;20069;-53
2023/08/28 08:47:28;;;;;;;3.60;3.00;;;15.90;99.90;;;;;;5031648;28;20034;-56
2023/08/28 08:49:56;;;;;;;3.80;2.88;;;16.00;99.90;;;;;;5033092;28;20049;-58
2023/08/28 08:52:23;;;;;;;4.30;2.67;;;16.00;99.90;;;;;;5032686;28;20069;-56
2023/08/28 08:54:50;;;;;;;7.60;3.08;;;16.10;99.90;;;;;;5032779;28;20045;-58
2023/08/28 08:57:17;;;;;;;3.35;2.70;;;16.20;99.90;;;;;;5032900;28;20126;-55
2023/08/28 08:59:44;;;;;;;4.35;2.75;;;16.20;99.90;;;;;;5032852;28;20125;-59
2023/08/28 09:02:10;;;;;;;3.78;2.53;;;16.30;99.90;;;;;;5034008;28;20099;-56
2023/08/28 09:04:37;;;;;;;3.17;1.95;;;16.40;99.90;;;;;;5036638;28;20041;-53
2023/08/28 09:07:05;;;;;;;3.15;2.10;;;16.60;99.90;;;;;;5036190;28;20037;-53
2023/08/28 09:09:32;;;;;;;3.15;1.80;;;16.60;99.90;;;;;;5035477;28;20034;-59
2023/08/28 09:11:59;;;;;;;3.38;2.05;;;16.70;99.90;;;;;;5036485;28;20041;-54
2023/08/28 09:14:28;;;;;;;3.05;1.83;;;16.70;99.90;;;;;;5035256;28;20037;-53
2023/08/28 09:16:55;;;;;;;2.95;2.17;;;16.80;99.90;;;;;;5036240;28;20038;-55
2023/08/28 09:19:21;;;;;;;3.38;1.83;;;16.80;99.90;;;;;;5035875;28;20045;-52
2023/08/28 09:21:48;;;;;;;3.38;1.73;;;16.80;99.90;;;;;;5036318;28;20385;-55
2023/08/28 09:24:15;;;;;;;3.35;1.80;;;16.80;99.90;;;;;;5034549;28;20052;-51
2023/08/28 09:26:42;;;;;;;6.68;2.00;;;16.70;99.90;;;;;;5035786;28;20380;-51
2023/08/28 09:29:08;;;;;;;2.83;1.77;;;16.70;99.90;;;;;;5035902;28;20044;-54
2023/08/28 09:31:35;;;;;;;3.25;1.70;;;16.90;99.90;;;;;;5034545;28;20051;-51
2023/08/28 09:34:03;;;;;;;3.60;1.60;;;16.80;99.90;;;;;;5035915;28;20041;-56
2023/08/28 09:36:35;;;;;;;4.72;1.63;;;16.80;99.90;;;;;;5034776;28;20599;-51
2023/08/28 09:39:03;;;;;;;2.70;1.55;;;16.80;99.90;;;;;;5035615;28;20049;-55
2023/08/28 09:41:30;;;;;;;4.43;1.48;;;16.90;99.90;;;;;;5034703;28;20049;-52
2023/08/28 09:43:57;;;;;;;5.32;1.70;;;16.90;99.90;;;;;;5035859;28;20064;-53
2023/08/28 09:46:24;;;;;;;3.35;1.50;;;16.90;99.90;;;;;;5035189;28;20380;-51
2023/08/28 09:48:50;;;;;;;1.92;1.23;;;17.10;99.90;;;;;;5035709;28;20087;-54
2023/08/28 09:51:17;;;;;;;2.85;1.20;;;17.20;99.90;;;;;;5035390;28;20548;-53
2023/08/28 09:53:44;;;;;;;2.83;1.67;;;17.40;99.90;;;;;;5034577;28;20045;-58
2023/08/28 09:56:11;;;;;;;2.30;1.23;;;17.50;99.90;;;;;;5035389;28;20084;-54
2023/08/28 09:58:38;;;;;;;2.38;1.27;;;17.50;99.90;;;;;;5034663;28;20048;-56
2023/08/28 10:01:04;;;;;;;6.38;1.30;;;17.60;99.90;;;;;;5035728;28;20058;-54
2023/08/28 10:03:31;;;;;;;3.10;1.08;;;17.70;99.90;;;;;;5034166;28;20050;-56
2023/08/28 10:05:58;;;;;;;3.85;1.20;;;17.80;99.90;;;;;;5029200;28;20118;-55
2023/08/28 10:08:25;;;;;;;2.35;0.98;;;17.80;99.90;;;;;;5027643;28;20053;-50
2023/08/28 10:10:52;;;;;;;2.50;1.05;;;17.80;99.90;;;;;;5035307;28;20041;-60
2023/08/28 10:13:19;;;;;;;2.55;1.10;;;17.80;99.90;;;;;;5033130;28;20045;-55
2023/08/28 10:15:46;;;;;;;3.05;1.10;;;17.90;99.90;;;;;;5034955;28;20400;-54
2023/08/28 10:18:12;;;;;;;3.22;1.35;;;18.00;99.90;;;;;;5034146;28;20136;-57
2023/08/28 10:20:39;;;;;;;2.30;1.15;;;18.10;99.90;;;;;;5034718;28;20045;-59
2023/08/28 10:23:06;;;;;;;3.10;1.00;;;18.20;99.80;;;;;;5035040;28;20041;-51
2023/08/28 10:25:33;;;;;;;2.97;1.35;;;18.20;99.90;;;;;;5034101;28;20049;-51
2023/08/28 10:28:00;;;;;;;2.42;1.00;;;18.40;99.90;;;;;;5035097;28;20042;-52
2023/08/28 10:30:27;;;;;;;5.18;4.57;;;18.50;99.90;;;;;;5034287;28;20389;-56
2023/08/28 10:32:54;;;;;;;3.90;3.42;;;18.60;99.70;;;;;;5034730;28;20106;-56
2023/08/28 10:35:20;;;;;;;3.25;1.60;;;18.60;99.90;;;;;;5033947;28;20068;-55
2023/08/28 10:37:47;;;;;;;31.88;29.02;;;18.80;99.90;;;;;;5034638;28;20114;-55
2023/08/28 10:40:17;;;;;;;4.07;2.75;;;18.90;99.70;;;;;;5033520;28;20396;-50
2023/08/28 10:42:44;;;;;;;12.68;11.57;;;18.90;99.50;;;;;;5033129;28;20550;-53
2023/08/28 10:45:11;;;;;;;4.30;3.83;;;18.90;99.50;;;;;;5034937;28;20053;-50
2023/08/28 10:47:37;;;;;;;21.52;19.60;;;19.00;98.90;;;;;;5034255;28;20370;-51
2023/08/28 10:50:04;;;;;;;6.78;6.10;;;19.00;99.00;;;;;;5033464;28;20142;-56
2023/08/28 10:52:31;;;;;;;10.23;9.23;;;18.90;98.40;;;;;;5034130;28;20408;-56
2023/08/28 10:54:58;;;;;;;4.15;2.10;;;18.90;98.60;;;;;;5033624;28;20099;-56
2023/08/28 10:57:29;;;;;;;15.10;13.60;;;19.00;98.60;;;;;;5032786;28;20061;-51
2023/08/28 10:59:56;;;;;;;5.47;4.30;;;19.10;98.40;;;;;;5033677;28;20056;-55
2023/08/28 11:02:22;;;;;;;10.43;8.68;;;19.10;98.40;;;;;;5034566;28;20042;-52
2023/08/28 11:04:49;;;;;;;14.02;12.55;;;19.10;98.10;;;;;;5033952;28;20464;-52
2023/08/28 11:07:16;;;;;;;2.25;1.30;;;19.10;98.50;;;;;;5033261;28;20046;-52
2023/08/28 11:09:43;;;;;;;2.30;1.13;;;19.20;98.20;;;;;;5034164;28;20427;-51
2023/08/28 11:12:10;;;;;;;2.03;1.10;;;19.20;98.20;;;;;;5033223;28;20040;-51
2023/08/28 11:14:37;;;;;;;4.28;3.00;;;19.20;98.50;;;;;;5033889;28;20037;-57
2023/08/28 11:17:18;;;;;;;2.75;1.70;;;19.40;98.60;;;;;;5031942;28;20108;-58
2023/08/28 11:19:47;;;;;;;5.80;2.92;;;19.60;98.60;;;;;;5033689;28;20049;-55
2023/08/28 11:22:13;;;;;;;3.58;1.38;;;19.60;97.90;;;;;;5033460;28;20108;-52
2023/08/28 11:24:40;;;;;;;3.78;0.90;;;19.60;98.00;;;;;;5032876;28;20046;-56
2023/08/28 11:27:07;;;;;;;1.60;0.98;;;19.50;98.00;;;;;;5031968;28;20385;-58
2023/08/28 11:29:34;;;;;;;2.10;0.88;;;19.50;98.60;;;;;;5032958;28;20049;-53
2023/08/28 11:32:00;;;;;;;1.88;0.90;;;19.50;97.90;;;;;;5033386;28;20045;-56
2023/08/28 11:34:28;;;;;;;2.80;1.75;;;19.40;98.00;;;;;;5033066;28;20044;-57
2023/08/28 11:36:55;;;;;;;4.95;2.20;;;19.50;98.30;;;;;;5033151;28;20133;-55
2023/08/28 11:39:23;;;;;;;61.25;53.40;;;19.60;98.40;;;;;;5032468;28;20050;-54
2023/08/28 11:41:50;;;;;;;312.58;275.20;;;19.80;98.20;;;;;;5033129;28;20038;-57
2023/08/28 11:44:16;;;;;;;25.48;22.48;;;19.90;97.90;;;;;;5032959;28;20041;-57
2023/08/28 11:46:43;;;;;;;4.07;3.00;;;19.90;97.60;;;;;;5032931;28;20116;-55
2023/08/28 11:49:13;;;;;;;4.90;2.90;;;19.90;97.60;;;;;;5031861;28;20045;-57
2023/08/28 11:51:40;;;;;;;3.30;1.60;;;19.90;97.70;;;;;;5031686;28;20041;-55
2023/08/28 11:54:06;;;;;;;1.92;0.90;;;19.80;97.30;;;;;;5033481;28;20044;-55
2023/08/28 11:56:33;;;;;;;99.65;81.35;;;19.80;97.30;;;;;;5032138;28;20038;-56
2023/08/28 11:59:00;;;;;;;292.65;244.25;;;19.80;97.00;;;;;;5032170;28;20041;-54
2023/08/28 12:01:28;;;;;;;23.95;19.55;;;19.80;97.30;;;;;;5033135;28;20071;-56
2023/08/28 12:03:55;;;;;;;5.40;3.55;;;19.90;97.30;;;;;;5032938;28;20076;-56
2023/08/28 12:06:22;;;;;;;4.22;1.35;;;19.90;97.50;;;;;;5032005;28;20457;-54
2023/08/28 12:08:49;;;;;;;2.55;0.98;;;19.80;97.50;;;;;;5028882;28;20106;-56
2023/08/28 12:11:16;;;;;;;8.32;7.28;;;19.70;97.80;;;;;;5019341;28;20045;-54
2023/08/28 12:13:43;;;;;;;3.85;2.92;;;19.70;97.60;;;;;;5029303;28;20033;-56
2023/08/28 12:16:12;;;;;;;2.72;1.00;;;19.80;98.10;;;;;;5024858;28;20539;-54
2023/08/28 12:18:39;;;;;;;2.08;0.90;;;19.80;97.80;;;;;;5023475;28;20038;-58
2023/08/28 12:21:07;;;;;;;5.50;4.65;;;19.70;97.10;;;;;;5024687;28;21307;-59
2023/08/28 12:23:34;;;;;;;4.22;3.78;;;19.70;97.40;;;;;;5024777;28;20049;-58
2023/08/28 12:26:02;;;;;;;1.92;1.00;;;19.80;97.20;;;;;;5025279;28;20103;-54
2023/08/28 12:28:29;;;;;;;3.92;1.50;;;19.90;97.40;;;;;;5024067;28;20045;-57
2023/08/28 12:30:56;;;;;;;1.60;0.70;;;19.90;97.10;;;;;;5029231;28;20492;-53
2023/08/28 12:33:23;;;;;;;1.95;1.00;;;19.80;97.30;;;;;;5024744;28;20357;-54
2023/08/28 12:35:50;;;;;;;1.50;0.70;;;19.80;97.10;;;;;;5023957;28;20064;-58
2023/08/28 12:38:16;;;;;;;2.10;1.10;;;19.80;97.10;;;;;;5030894;28;20034;-57
2023/08/28 12:40:44;;;;;;;5.78;3.10;;;19.80;97.60;;;;;;5029343;28;20038;-53
2023/08/28 12:43:10;;;;;;;2.53;1.40;;;19.80;97.60;;;;;;5027973;28;20112;-54
2023/08/28 12:45:37;;;;;;;3.03;1.80;;;20.00;97.00;;;;;;5028205;28;20046;-55